Time;durP1;ratioP1;P1;durP2;ratioP2;P2;SDS_P1;SDS_P2;PMS_P1;PMS_P2;Temp;Humidity;BMP_temperature;BMP_pressure;BME280_temperature;BME280_humidity;BME280_pressure;Samples;Min_cycle;Max_cycle;Signal;HPM_P1;HPM_P2
2022/04/22 00:00:28;;;;;;;15.45;3.22;;;;;;;;;;5081351;28;20402;-42
2022/04/22 00:02:55;;;;;;;15.80;3.25;;;;;;;;;;5078605;28;20035;-43
2022/04/22 00:05:23;;;;;;;16.63;3.00;;;;;;;;;;5079633;28;20108;-41
2022/04/22 00:07:50;;;;;;;20.02;3.00;;;;;;;;;;5081860;28;20031;-36
2022/04/22 00:10:17;;;;;;;9.40;2.40;;;;;;;;;;5076847;28;20052;-37
2022/04/22 00:12:44;;;;;;;12.88;3.08;;;;;;;;;;5080199;28;20040;-41
2022/04/22 00:15:13;;;;;;;10.95;3.05;;;;;;;;;;5078289;28;20029;-42
2022/04/22 00:17:41;;;;;;;15.48;3.55;;;;;;;;;;5079434;28;20763;-37
2022/04/22 00:20:10;;;;;;;13.27;2.95;;;;;;;;;;5080048;28;20032;-40
2022/04/22 00:22:40;;;;;;;11.98;2.63;;;;;;;;;;5081565;28;20024;-43
2022/04/22 00:25:09;;;;;;;13.63;3.53;;;;;;;;;;5079846;28;20505;-38
2022/04/22 00:27:37;;;;;;;18.70;4.00;;;;;;;;;;5079655;28;20035;-41
2022/04/22 00:30:05;;;;;;;14.75;4.07;;;;;;;;;;5081430;28;20032;-38
2022/04/22 00:32:33;;;;;;;11.20;3.35;;;;;;;;;;5077543;28;20093;-42
2022/04/22 00:35:01;;;;;;;11.30;3.45;;;;;;;;;;5083866;28;20057;-37
2022/04/22 00:37:28;;;;;;;11.15;3.65;;;;;;;;;;5086855;28;20067;-35
2022/04/22 00:39:55;;;;;;;15.35;3.80;;;;;;;;;;5080636;28;20043;-40
2022/04/22 00:42:22;;;;;;;12.98;3.60;;;;;;;;;;5074596;28;20027;-37
2022/04/22 00:44:49;;;;;;;14.25;3.58;;;;;;;;;;5074649;28;20031;-40
2022/04/22 00:47:16;;;;;;;11.18;3.80;;;;;;;;;;5075586;28;20038;-39
2022/04/22 00:49:43;;;;;;;16.83;4.88;;;;;;;;;;5074666;28;20486;-39
2022/04/22 00:52:11;;;;;;;12.70;3.45;;;;;;;;;;5074991;28;20039;-46
2022/04/22 00:54:38;;;;;;;12.50;3.83;;;;;;;;;;5078935;28;20508;-39
2022/04/22 00:57:05;;;;;;;26.88;3.88;;;;;;;;;;5080679;28;20031;-42
2022/04/22 00:59:33;;;;;;;20.02;3.70;;;;;;;;;;5085112;28;20036;-41
2022/04/22 01:02:00;;;;;;;13.00;3.88;;;;;;;;;;5087967;28;20549;-41
2022/04/22 01:09:57;;;;;;;14.05;3.83;;;;;;;;;;5084744;28;20086;-41
2022/04/22 01:12:30;;;;;;;17.73;3.33;;;;;;;;;;5086721;28;20587;-45
2022/04/22 01:14:58;;;;;;;13.45;3.20;;;;;;;;;;5055304;28;20044;-45
2022/04/22 01:17:26;;;;;;;15.98;4.47;;;;;;;;;;5085357;28;20139;-45
2022/04/22 01:19:54;;;;;;;15.40;3.25;;;;;;;;;;5080372;28;20088;-45
2022/04/22 01:22:22;;;;;;;8.57;2.80;;;;;;;;;;5079798;28;20081;-41
2022/04/22 01:24:54;;;;;;;18.85;3.70;;;;;;;;;;5078575;28;20123;-42
2022/04/22 01:27:23;;;;;;;12.05;3.67;;;;;;;;;;5079346;28;20035;-41
2022/04/22 01:29:50;;;;;;;15.93;3.90;;;;;;;;;;5080657;28;20367;-46
2022/04/22 01:32:17;;;;;;;11.48;3.55;;;;;;;;;;5088537;28;20047;-42
2022/04/22 01:34:44;;;;;;;11.90;3.58;;;;;;;;;;5090768;28;20503;-42
2022/04/22 01:37:11;;;;;;;11.13;3.58;;;;;;;;;;5091411;28;20024;-42
2022/04/22 01:39:38;;;;;;;12.60;4.43;;;;;;;;;;5091189;28;20089;-41
2022/04/22 01:42:06;;;;;;;11.07;4.15;;;;;;;;;;5091151;28;20020;-42
2022/04/22 01:44:35;;;;;;;12.15;4.47;;;;;;;;;;5091328;28;20027;-45
2022/04/22 01:47:03;;;;;;;12.05;4.45;;;;;;;;;;5090892;28;20059;-42
2022/04/22 01:49:30;;;;;;;14.98;5.47;;;;;;;;;;5090878;28;20024;-42
2022/04/22 01:51:58;;;;;;;11.65;6.05;;;;;;;;;;5091225;28;20099;-45
2022/04/22 01:54:25;;;;;;;13.35;5.72;;;;;;;;;;5084308;28;20039;-45
2022/04/22 01:56:52;;;;;;;12.90;5.80;;;;;;;;;;5078375;28;20391;-44
2022/04/22 01:59:19;;;;;;;12.48;5.50;;;;;;;;;;5082677;22;20410;-41
2022/04/22 02:01:46;;;;;;;12.13;4.90;;;;;;;;;;5051138;28;20036;-41
2022/04/22 02:04:13;;;;;;;8.48;4.80;;;;;;;;;;5050574;28;20037;-42
2022/04/22 02:06:40;;;;;;;12.32;5.65;;;;;;;;;;5033704;28;20029;-42
2022/04/22 02:09:07;;;;;;;11.75;5.07;;;;;;;;;;5054935;28;20043;-42
2022/04/22 02:11:35;;;;;;;10.15;5.15;;;;;;;;;;5047815;28;20025;-42
2022/04/22 02:14:02;;;;;;;12.73;5.88;;;;;;;;;;5047541;28;20119;-41
2022/04/22 02:16:29;;;;;;;13.07;4.57;;;;;;;;;;5044312;28;20508;-41
2022/04/22 02:18:57;;;;;;;11.30;5.30;;;;;;;;;;5036447;28;20438;-41
2022/04/22 02:21:24;;;;;;;12.68;4.28;;;;;;;;;;5034408;28;20044;-41
2022/04/22 02:23:51;;;;;;;18.92;3.90;;;;;;;;;;5034714;28;20033;-41
2022/04/22 02:26:18;;;;;;;11.05;3.25;;;;;;;;;;5034757;28;20037;-41
2022/04/22 02:28:45;;;;;;;15.85;3.92;;;;;;;;;;5034962;28;20031;-41
2022/04/22 02:31:12;;;;;;;10.93;3.20;;;;;;;;;;5035037;28;20025;-41
2022/04/22 02:33:40;;;;;;;12.23;3.28;;;;;;;;;;5030786;28;20094;-40
2022/04/22 02:36:08;;;;;;;9.98;3.88;;;;;;;;;;5034204;28;20051;-41
2022/04/22 02:38:35;;;;;;;9.90;3.80;;;;;;;;;;5034463;28;20037;-40
2022/04/22 02:46:33;;;;;;;7.68;3.80;;;;;;;;;;5034640;28;20099;-40
2022/04/22 02:49:01;;;;;;;9.85;4.32;;;;;;;;;;5034431;28;20035;-40
2022/04/22 02:51:28;;;;;;;11.73;3.70;;;;;;;;;;5034444;28;20028;-40
2022/04/22 02:53:55;;;;;;;6.38;3.13;;;;;;;;;;5034444;28;20032;-40
2022/04/22 02:56:23;;;;;;;7.75;3.15;;;;;;;;;;5034456;28;20022;-40
2022/04/22 02:58:52;;;;;;;10.88;3.55;;;;;;;;;;5016528;28;20352;-41
2022/04/22 03:01:19;;;;;;;8.50;3.38;;;;;;;;;;5054201;28;20029;-40
2022/04/22 03:03:46;;;;;;;7.78;2.97;;;;;;;;;;5053858;28;20100;-40
2022/04/22 03:06:13;;;;;;;8.63;3.38;;;;;;;;;;5054099;28;20021;-40
2022/04/22 03:08:41;;;;;;;8.10;2.95;;;;;;;;;;5050007;28;20039;-40
2022/04/22 03:11:07;;;;;;;5.55;3.17;;;;;;;;;;5053788;28;20033;-40
2022/04/22 03:13:34;;;;;;;5.90;2.83;;;;;;;;;;5054050;28;20025;-40
2022/04/22 03:16:03;;;;;;;7.30;3.45;;;;;;;;;;5054011;28;20104;-41
2022/04/22 03:18:30;;;;;;;9.32;3.28;;;;;;;;;;5053330;28;20041;-40
2022/04/22 03:20:58;;;;;;;3.85;2.60;;;;;;;;;;5054119;28;20028;-40
2022/04/22 03:23:25;;;;;;;7.53;2.75;;;;;;;;;;5054091;28;20032;-40
2022/04/22 03:25:54;;;;;;;8.50;2.78;;;;;;;;;;5054080;28;20021;-40
2022/04/22 03:28:22;;;;;;;8.88;2.63;;;;;;;;;;5053812;28;20032;-41
2022/04/22 03:30:49;;;;;;;7.35;2.80;;;;;;;;;;5053855;28;20056;-40
2022/04/22 03:33:17;;;;;;;6.68;2.53;;;;;;;;;;5053758;28;20179;-40
2022/04/22 03:35:45;;;;;;;4.72;2.63;;;;;;;;;;5053721;28;20064;-40
2022/04/22 03:38:12;;;;;;;6.05;2.83;;;;;;;;;;5053655;28;20033;-40
2022/04/22 03:40:39;;;;;;;5.95;2.40;;;;;;;;;;5053744;28;20390;-40
2022/04/22 03:43:06;;;;;;;8.90;2.47;;;;;;;;;;5053693;28;20550;-40
2022/04/22 03:45:33;;;;;;;3.67;2.20;;;;;;;;;;5053695;28;20055;-40
2022/04/22 03:48:00;;;;;;;4.53;2.78;;;;;;;;;;5053627;28;20470;-40
2022/04/22 03:50:28;;;;;;;5.63;2.42;;;;;;;;;;5053505;28;20040;-40
2022/04/22 03:52:55;;;;;;;4.82;2.45;;;;;;;;;;5053608;28;20037;-40
2022/04/22 03:55:22;;;;;;;4.60;2.65;;;;;;;;;;5053539;28;20028;-40
2022/04/22 04:00:34;;;;;;;5.15;2.47;;;;;;;;;;5053242;28;20056;-40
2022/04/22 04:03:01;;;;;;;4.45;2.20;;;;;;;;;;5053300;28;20071;-40
2022/04/22 04:05:31;;;;;;;4.30;2.53;;;;;;;;;;5053245;28;20025;-40
2022/04/22 04:07:57;;;;;;;4.25;1.77;;;;;;;;;;5053059;28;20029;-40
2022/04/22 04:16:00;;;;;;;6.03;2.28;;;;;;;;;;5053143;28;20064;-40
2022/04/22 04:18:28;;;;;;;4.82;1.77;;;;;;;;;;5052867;28;20028;-40
2022/04/22 04:23:41;;;;;;;3.90;1.73;;;;;;;;;;5053237;28;20126;-40
2022/04/22 04:26:08;;;;;;;4.35;1.77;;;;;;;;;;5052899;28;20029;-40
2022/04/22 04:28:36;;;;;;;2.75;1.48;;;;;;;;;;5052837;28;20372;-40
2022/04/22 04:31:03;;;;;;;4.07;1.75;;;;;;;;;;5051954;28;20449;-40
2022/04/22 04:33:31;;;;;;;3.45;1.70;;;;;;;;;;5035200;28;20045;-40
2022/04/22 04:35:58;;;;;;;3.40;1.73;;;;;;;;;;5052615;28;20039;-40
2022/04/22 04:38:27;;;;;;;2.83;1.50;;;;;;;;;;5052515;28;20025;-41
2022/04/22 04:40:54;;;;;;;7.78;2.17;;;;;;;;;;5052524;28;20025;-40
2022/04/22 04:43:22;;;;;;;4.57;2.35;;;;;;;;;;5052636;28;20043;-40
2022/04/22 04:45:50;;;;;;;4.00;1.77;;;;;;;;;;5052436;28;20399;-40
2022/04/22 04:48:17;;;;;;;3.97;2.10;;;;;;;;;;5052576;28;20037;-40
2022/04/22 04:50:45;;;;;;;3.75;2.15;;;;;;;;;;5052652;28;20059;-40
2022/04/22 04:53:13;;;;;;;3.03;2.20;;;;;;;;;;5052547;28;20100;-40
2022/04/22 04:55:40;;;;;;;3.00;1.85;;;;;;;;;;5052595;28;20047;-40
2022/04/22 04:58:07;;;;;;;4.85;2.05;;;;;;;;;;5052357;28;20037;-40
2022/04/22 05:00:34;;;;;;;3.78;1.45;;;;;;;;;;5052270;28;20053;-40
2022/04/22 05:03:01;;;;;;;3.28;1.83;;;;;;;;;;5052430;28;20420;-40
2022/04/22 05:05:29;;;;;;;1.70;1.30;;;;;;;;;;5052472;28;20040;-40
2022/04/22 05:07:57;;;;;;;3.35;1.90;;;;;;;;;;5052310;28;20475;-40
2022/04/22 05:10:26;;;;;;;6.07;2.13;;;;;;;;;;5052427;28;20025;-40
2022/04/22 05:12:53;;;;;;;5.90;2.00;;;;;;;;;;5052259;28;20108;-40
2022/04/22 05:15:22;;;;;;;2.83;1.83;;;;;;;;;;5052186;28;20559;-40
2022/04/22 05:17:50;;;;;;;4.50;2.03;;;;;;;;;;5052142;28;20040;-40
2022/04/22 05:20:17;;;;;;;2.88;1.80;;;;;;;;;;5052102;28;20526;-40
2022/04/22 05:22:45;;;;;;;4.88;1.70;;;;;;;;;;5052110;28;20032;-40
2022/04/22 05:25:13;;;;;;;2.05;1.55;;;;;;;;;;5052022;28;20021;-40
2022/04/22 05:27:40;;;;;;;5.53;1.70;;;;;;;;;;5052194;28;20120;-40
2022/04/22 05:32:53;;;;;;;2.40;1.63;;;;;;;;;;5052500;28;20040;-40
2022/04/22 05:35:21;;;;;;;5.35;1.90;;;;;;;;;;5052140;28;20112;-40
2022/04/22 05:37:49;;;;;;;3.85;1.70;;;;;;;;;;5052086;28;20021;-40
2022/04/22 05:40:17;;;;;;;3.33;1.63;;;;;;;;;;5051918;28;20025;-40
2022/04/22 05:42:45;;;;;;;2.90;2.15;;;;;;;;;;5056079;28;20749;-40
2022/04/22 05:45:13;;;;;;;5.88;1.80;;;;;;;;;;5056185;28;20025;-40
2022/04/22 05:47:41;;;;;;;2.83;1.75;;;;;;;;;;5056098;28;20542;-40
2022/04/22 05:50:09;;;;;;;2.58;1.80;;;;;;;;;;5055793;28;20398;-40
2022/04/22 05:52:37;;;;;;;2.50;1.42;;;;;;;;;;5056061;28;20052;-40
2022/04/22 05:55:06;;;;;;;2.28;1.40;;;;;;;;;;5055929;28;20025;-40
2022/04/22 05:57:34;;;;;;;4.72;1.52;;;;;;;;;;5055818;28;20072;-40
2022/04/22 06:00:03;;;;;;;4.07;1.58;;;;;;;;;;5055458;28;20156;-40
2022/04/22 06:02:31;;;;;;;3.15;1.55;;;;;;;;;;5055630;28;20032;-40
2022/04/22 06:04:58;;;;;;;3.05;1.80;;;;;;;;;;5055611;28;20068;-40
2022/04/22 06:07:24;;;;;;;3.47;1.77;;;;;;;;;;5055763;28;20080;-40
2022/04/22 06:12:37;;;;;;;2.30;1.20;;;;;;;;;;5055913;28;20102;-40
2022/04/22 06:15:04;;;;;;;5.82;1.63;;;;;;;;;;5055592;28;20029;-40
2022/04/22 06:17:32;;;;;;;3.70;1.60;;;;;;;;;;5055407;28;20494;-40
2022/04/22 06:19:59;;;;;;;3.35;1.48;;;;;;;;;;5055324;28;20025;-40
2022/04/22 06:22:27;;;;;;;4.32;1.35;;;;;;;;;;5055402;28;20064;-40
2022/04/22 06:24:55;;;;;;;3.08;1.48;;;;;;;;;;5055305;28;20025;-40
2022/04/22 06:27:25;;;;;;;3.63;1.30;;;;;;;;;;5055361;28;20025;-40
2022/04/22 06:29:53;;;;;;;3.05;1.42;;;;;;;;;;5055247;28;20029;-40
2022/04/22 06:32:22;;;;;;;1.70;1.20;;;;;;;;;;5188185;22;20045;-37
2022/04/22 06:34:50;;;;;;;3.30;1.20;;;;;;;;;;5015458;28;20467;-36
2022/04/22 06:37:17;;;;;;;2.90;1.50;;;;;;;;;;5015555;28;20383;-36
2022/04/22 06:48:00;;;;;;;4.85;1.17;;;;;;;;;;5015511;28;20044;-36
2022/04/22 06:50:28;;;;;;;1.65;1.00;;;;;;;;;;5015296;28;20105;-36
2022/04/22 06:52:55;;;;;;;3.03;1.15;;;;;;;;;;5014306;28;20503;-36
2022/04/22 06:55:22;;;;;;;4.63;1.73;;;;;;;;;;5015179;28;20018;-36
2022/04/22 06:57:50;;;;;;;2.58;1.15;;;;;;;;;;5014967;28;20100;-36
2022/04/22 07:00:18;;;;;;;1.83;1.05;;;;;;;;;;5014920;28;20042;-36
2022/04/22 07:02:45;;;;;;;4.65;1.30;;;;;;;;;;5014948;28;20475;-36
2022/04/22 07:05:12;;;;;;;1.80;1.17;;;;;;;;;;5014893;28;20034;-36
2022/04/22 07:07:40;;;;;;;5.22;1.20;;;;;;;;;;5014977;28;20069;-36
2022/04/22 07:10:07;;;;;;;1.75;1.20;;;;;;;;;;5014915;28;20496;-36
2022/04/22 07:12:35;;;;;;;1.95;1.48;;;;;;;;;;5014761;28;20427;-36
2022/04/22 07:15:06;;;;;;;1.98;1.30;;;;;;;;;;5014601;28;20399;-36
2022/04/22 07:17:37;;;;;;;1.55;1.05;;;;;;;;;;5014781;28;20026;-36
2022/04/22 07:20:09;;;;;;;3.92;1.30;;;;;;;;;;5014593;28;20022;-36
2022/04/22 07:22:37;;;;;;;1.40;1.05;;;;;;;;;;5014472;28;20463;-36
2022/04/22 07:25:05;;;;;;;2.17;1.27;;;;;;;;;;5014617;28;20041;-36
2022/04/22 07:27:34;;;;;;;2.58;1.17;;;;;;;;;;5014410;28;20022;-36
2022/04/22 07:30:01;;;;;;;1.90;1.27;;;;;;;;;;5014509;28;20511;-36
2022/04/22 07:32:28;;;;;;;1.63;1.00;;;;;;;;;;5025024;28;20056;-36
2022/04/22 07:34:55;;;;;;;0.85;0.80;;;;;;;;;;5016331;28;20462;-36
2022/04/22 07:37:23;;;;;;;0.93;0.90;;;;;;;;;;5034136;28;20037;-36
2022/04/22 07:39:50;;;;;;;1.63;0.98;;;;;;;;;;5034048;28;20573;-36
2022/04/22 07:42:19;;;;;;;2.90;1.00;;;;;;;;;;5033821;28;20565;-36
2022/04/22 07:47:35;;;;;;;1.45;1.10;;;;;;;;;;5034285;28;20133;-36
2022/04/22 07:50:05;;;;;;;3.42;1.35;;;;;;;;;;5033921;28;20037;-36
2022/04/22 07:52:38;;;;;;;2.42;1.20;;;;;;;;;;5033667;28;20033;-36
2022/04/22 07:55:05;;;;;;;2.00;1.00;;;;;;;;;;5033681;28;20099;-36
2022/04/22 07:57:32;;;;;;;2.60;0.90;;;;;;;;;;5033725;28;20029;-37
2022/04/22 07:59:59;;;;;;;3.05;1.20;;;;;;;;;;5033628;28;20091;-36
2022/04/22 08:02:26;;;;;;;2.22;0.90;;;;;;;;;;5033539;28;20034;-36
2022/04/22 08:04:53;;;;;;;1.73;0.93;;;;;;;;;;5033523;28;20033;-36
2022/04/22 08:07:20;;;;;;;1.05;0.93;;;;;;;;;;5033424;28;20037;-36
2022/04/22 08:09:47;;;;;;;2.38;0.90;;;;;;;;;;5033517;28;20030;-36
2022/04/22 08:12:15;;;;;;;1.77;0.70;;;;;;;;;;5033432;28;20082;-36
2022/04/22 08:14:42;;;;;;;1.02;0.80;;;;;;;;;;5033411;28;20025;-36
2022/04/22 08:17:09;;;;;;;1.80;0.80;;;;;;;;;;5033346;28;20025;-36
2022/04/22 08:19:36;;;;;;;0.75;0.75;;;;;;;;;;5033240;28;20033;-36
2022/04/22 08:22:03;;;;;;;1.55;0.80;;;;;;;;;;5033229;28;20502;-36
2022/04/22 08:24:30;;;;;;;1.55;1.02;;;;;;;;;;5033443;28;20029;-36
2022/04/22 08:26:57;;;;;;;3.58;0.90;;;;;;;;;;5033229;28;20034;-36
2022/04/22 08:29:24;;;;;;;1.98;0.60;;;;;;;;;;5033091;28;20545;-36
2022/04/22 08:31:52;;;;;;;0.82;0.50;;;;;;;;;;5032841;28;20487;-36
2022/04/22 08:34:19;;;;;;;0.77;0.40;;;;;;;;;;5032953;28;20163;-36
2022/04/22 08:36:47;;;;;;;2.70;0.60;;;;;;;;;;5033000;28;20041;-36
2022/04/22 08:39:15;;;;;;;1.13;0.52;;;;;;;;;;5032947;28;20470;-36
2022/04/22 08:41:42;;;;;;;0.75;0.50;;;;;;;;;;5032729;28;20025;-36
2022/04/22 08:44:12;;;;;;;0.98;0.50;;;;;;;;;;5032866;28;20033;-36
2022/04/22 08:52:13;;;;;;;1.33;0.47;;;;;;;;;;5032753;28;20514;-36
2022/04/22 08:54:46;;;;;;;3.15;0.70;;;;;;;;;;5032742;28;20025;-36
2022/04/22 08:57:13;;;;;;;0.77;0.35;;;;;;;;;;5032712;28;20037;-36
2022/04/22 08:59:41;;;;;;;0.70;0.30;;;;;;;;;;5032580;28;20057;-36
2022/04/22 09:02:08;;;;;;;0.85;0.47;;;;;;;;;;5032305;28;20029;-37
2022/04/22 09:04:35;;;;;;;1.02;0.40;;;;;;;;;;5032655;28;20025;-36
2022/04/22 09:07:02;;;;;;;1.00;0.50;;;;;;;;;;5032566;28;20088;-36
2022/04/22 09:09:30;;;;;;;1.05;0.50;;;;;;;;;;5032518;28;20036;-37
2022/04/22 09:12:13;;;;;;;1.05;0.30;;;;;;;;;;5032427;28;20029;-36
2022/04/22 09:14:50;;;;;;;0.82;0.43;;;;;;;;;;5032459;28;20041;-36
2022/04/22 09:17:27;;;;;;;1.20;0.50;;;;;;;;;;5031976;28;20048;-36
2022/04/22 09:19:57;;;;;;;1.73;0.57;;;;;;;;;;5032326;28;20119;-36
2022/04/22 09:22:24;;;;;;;1.08;0.50;;;;;;;;;;5032106;28;20038;-37
2022/04/22 09:24:56;;;;;;;1.25;0.50;;;;;;;;;;5032362;28;20773;-36
2022/04/22 09:27:36;;;;;;;2.67;0.63;;;;;;;;;;5032249;28;20040;-36
2022/04/22 09:30:07;;;;;;;0.98;0.50;;;;;;;;;;5032334;28;20044;-37
2022/04/22 09:32:37;;;;;;;1.23;0.40;;;;;;;;;;5032044;28;20049;-36
2022/04/22 09:35:16;;;;;;;0.65;0.50;;;;;;;;;;5032196;28;20030;-36
2022/04/22 09:43:24;;;;;;;1.15;0.70;;;;;;;;;;5032226;28;20099;-36
2022/04/22 09:45:54;;;;;;;0.40;0.30;;;;;;;;;;5032011;28;20084;-37
2022/04/22 09:48:21;;;;;;;0.70;0.47;;;;;;;;;;5032123;28;20022;-36
2022/04/22 09:50:52;;;;;;;1.42;0.50;;;;;;;;;;5032076;28;20049;-37
2022/04/22 09:53:32;;;;;;;2.20;0.45;;;;;;;;;;5031982;28;20478;-36
2022/04/22 09:56:05;;;;;;;2.58;0.50;;;;;;;;;;5031980;28;20372;-36
2022/04/22 09:58:31;;;;;;;;;;;;;;;;;;5032450;28;20033;-36
2022/04/22 10:01:00;;;;;;;1.30;0.40;;;;;;;;;;5031993;28;20361;-36
2022/04/22 10:03:31;;;;;;;1.30;0.47;;;;;;;;;;5031870;28;20112;-37
2022/04/22 10:05:59;;;;;;;0.30;0.30;;;;;;;;;;5032003;28;20021;-36
2022/04/22 10:08:28;;;;;;;1.40;0.40;;;;;;;;;;5032053;28;20026;-36
2022/04/22 10:10:58;;;;;;;2.78;0.60;;;;;;;;;;5031785;28;20030;-36
2022/04/22 10:13:26;;;;;;;1.08;0.50;;;;;;;;;;5031880;28;20022;-36
2022/04/22 10:15:53;;;;;;;1.63;0.50;;;;;;;;;;5031934;28;20029;-36
2022/04/22 10:18:22;;;;;;;0.50;0.50;;;;;;;;;;5031856;28;20509;-36
2022/04/22 10:20:50;;;;;;;0.70;0.60;;;;;;;;;;5031695;28;20041;-37
2022/04/22 10:23:17;;;;;;;0.65;0.63;;;;;;;;;;5031955;28;20029;-36
2022/04/22 10:25:44;;;;;;;1.23;0.70;;;;;;;;;;5031842;28;20080;-37
2022/04/22 10:28:11;;;;;;;0.60;0.60;;;;;;;;;;5033123;28;20017;-36
2022/04/22 10:30:40;;;;;;;1.73;0.65;;;;;;;;;;5035342;28;20403;-37
2022/04/22 10:33:09;;;;;;;1.38;0.80;;;;;;;;;;5035170;28;20622;-36
2022/04/22 10:35:40;;;;;;;1.10;0.50;;;;;;;;;;5035352;28;20113;-37
2022/04/22 10:38:11;;;;;;;21.70;1.17;;;;;;;;;;5035298;28;20391;-36
2022/04/22 10:40:38;;;;;;;1.98;0.50;;;;;;;;;;5035265;28;20117;-36
2022/04/22 10:43:05;;;;;;;0.47;0.40;;;;;;;;;;5035483;28;20037;-36
2022/04/22 10:48:24;;;;;;;1.10;0.52;;;;;;;;;;5035139;28;20426;-37
2022/04/22 10:50:58;;;;;;;0.68;0.60;;;;;;;;;;5034844;28;20036;-36
2022/04/22 10:53:26;;;;;;;0.80;0.52;;;;;;;;;;5035045;28;20041;-36
2022/04/22 10:55:53;;;;;;;1.50;0.60;;;;;;;;;;5017215;28;20076;-37
2022/04/22 10:58:23;;;;;;;1.48;0.50;;;;;;;;;;5034811;28;20075;-37
2022/04/22 11:00:51;;;;;;;1.05;0.57;;;;;;;;;;5034666;28;20637;-37
2022/04/22 11:03:21;;;;;;;4.50;0.60;;;;;;;;;;5034864;28;20052;-36
2022/04/22 11:05:49;;;;;;;0.77;0.40;;;;;;;;;;5034712;28;20392;-36
2022/04/22 11:08:24;;;;;;;0.70;0.60;;;;;;;;;;5034789;28;20033;-36
2022/04/22 11:10:51;;;;;;;0.95;0.70;;;;;;;;;;5034739;28;20433;-37
2022/04/22 11:13:28;;;;;;;1.65;0.60;;;;;;;;;;5016830;28;20036;-36
2022/04/22 11:16:18;;;;;;;0.60;0.45;;;;;;;;;;5034487;28;20649;-36
2022/04/22 11:18:46;;;;;;;1.13;0.57;;;;;;;;;;5024348;28;20041;-36
2022/04/22 11:21:16;;;;;;;1.15;0.70;;;;;;;;;;5030306;28;20029;-36
2022/04/22 11:23:46;;;;;;;0.73;0.40;;;;;;;;;;5034241;28;20029;-36
2022/04/22 11:26:14;;;;;;;0.63;0.50;;;;;;;;;;5013358;28;20505;-37
2022/04/22 11:28:42;;;;;;;1.17;0.55;;;;;;;;;;5034390;28;20033;-37
2022/04/22 11:31:11;;;;;;;1.50;0.57;;;;;;;;;;5033937;28;20029;-37
2022/04/22 11:33:56;;;;;;;3.50;0.93;;;;;;;;;;5014470;28;20037;-37
2022/04/22 11:36:26;;;;;;;9.82;1.10;;;;;;;;;;4991330;28;20062;-38
2022/04/22 11:38:54;;;;;;;5.80;1.10;;;;;;;;;;4993484;28;20034;-39
2022/04/22 11:41:22;;;;;;;9.90;0.98;;;;;;;;;;4993855;28;20037;-36
2022/04/22 11:43:49;;;;;;;5.05;0.93;;;;;;;;;;4993292;28;20381;-36
2022/04/22 11:46:17;;;;;;;2.92;0.73;;;;;;;;;;4995320;28;20422;-36
2022/04/22 11:48:48;;;;;;;5.43;1.10;;;;;;;;;;4992433;28;20033;-38
2022/04/22 11:51:21;;;;;;;8.13;0.70;;;;;;;;;;5013131;28;20022;-36
2022/04/22 11:53:52;;;;;;;22.90;1.77;;;;;;;;;;5013435;28;20041;-38
2022/04/22 11:56:20;;;;;;;31.00;1.73;;;;;;;;;;5012429;28;20073;-39
2022/04/22 11:58:51;;;;;;;343.38;14.65;;;;;;;;;;5009532;28;20049;-39
2022/04/22 12:06:56;;;;;;;89.05;7.43;;;;;;;;;;5012670;28;20115;-40
2022/04/22 12:09:23;;;;;;;71.57;8.38;;;;;;;;;;5013058;28;20030;-39
2022/04/22 12:11:51;;;;;;;59.80;7.00;;;;;;;;;;5013052;28;20452;-37
2022/04/22 12:14:25;;;;;;;30.48;3.92;;;;;;;;;;5013175;28;20133;-32
2022/04/22 12:17:04;;;;;;;13.88;2.00;;;;;;;;;;5012908;28;20026;-33
2022/04/22 12:19:31;;;;;;;9.05;1.52;;;;;;;;;;5004635;28;20704;-32
2022/04/22 12:21:59;;;;;;;17.48;1.95;;;;;;;;;;4998864;28;20097;-37
2022/04/22 12:24:26;;;;;;;41.92;4.75;;;;;;;;;;4998461;28;20026;-37
2022/04/22 12:26:54;;;;;;;35.55;5.05;;;;;;;;;;4995265;28;20125;-37
2022/04/22 12:29:24;;;;;;;30.52;5.22;;;;;;;;;;4993266;28;20069;-38
2022/04/22 12:31:52;;;;;;;36.00;5.72;;;;;;;;;;4999834;28;20048;-38
2022/04/22 12:34:26;;;;;;;62.70;6.28;;;;;;;;;;5001938;28;20475;-36
2022/04/22 12:36:53;;;;;;;41.88;5.45;;;;;;;;;;5032611;28;20107;-37
2022/04/22 12:39:38;;;;;;;28.08;4.78;;;;;;;;;;5032556;28;20022;-38
2022/04/22 12:42:06;;;;;;;32.05;4.25;;;;;;;;;;5032501;28;20030;-38
2022/04/22 12:44:34;;;;;;;26.85;3.47;;;;;;;;;;5032626;28;20072;-37
2022/04/22 12:52:59;;;;;;;15.20;2.53;;;;;;;;;;5032666;28;20052;-37
2022/04/22 12:55:26;;;;;;;21.88;3.22;;;;;;;;;;5032426;28;20383;-37
2022/04/22 12:57:59;;;;;;;9.70;2.38;;;;;;;;;;5032197;28;20029;-38
2022/04/22 13:00:26;;;;;;;9.45;1.77;;;;;;;;;;5032148;28;20037;-38
2022/04/22 13:02:53;;;;;;;28.35;2.63;;;;;;;;;;5032223;28;20454;-37
2022/04/22 13:05:23;;;;;;;19.92;1.48;;;;;;;;;;5032103;28;20541;-37
2022/04/22 13:07:50;;;;;;;61.50;12.10;;;;;;;;;;5031954;28;20109;-37
2022/04/22 13:10:19;;;;;;;29.10;7.05;;;;;;;;;;5032238;28;20032;-37
2022/04/22 13:12:48;;;;;;;19.80;4.97;;;;;;;;;;5014216;28;20407;-37
2022/04/22 13:15:19;;;;;;;19.70;3.97;;;;;;;;;;5032167;28;20079;-37
2022/04/22 13:17:49;;;;;;;14.88;3.15;;;;;;;;;;5030609;28;20112;-36
2022/04/22 13:20:18;;;;;;;14.02;2.83;;;;;;;;;;5025628;28;20431;-37
2022/04/22 13:22:45;;;;;;;24.17;3.35;;;;;;;;;;4994048;28;20022;-37
2022/04/22 13:25:12;;;;;;;19.17;2.92;;;;;;;;;;5011747;28;20048;-37
2022/04/22 13:27:40;;;;;;;20.00;3.00;;;;;;;;;;5011540;28;20065;-37
2022/04/22 13:30:08;;;;;;;25.10;3.45;;;;;;;;;;5011900;28;20037;-37
2022/04/22 13:32:36;;;;;;;15.48;2.63;;;;;;;;;;5011385;28;20128;-37
2022/04/22 13:35:05;;;;;;;14.68;2.53;;;;;;;;;;5011452;28;20025;-37
2022/04/22 13:37:35;;;;;;;13.93;1.90;;;;;;;;;;5011930;28;20384;-36
2022/04/22 13:40:02;;;;;;;6.45;1.42;;;;;;;;;;5011393;28;20100;-36
2022/04/22 13:42:29;;;;;;;11.60;1.55;;;;;;;;;;5011383;28;20511;-35
2022/04/22 13:53:11;;;;;;;6.95;1.10;;;;;;;;;;5011690;28;20045;-37
2022/04/22 13:55:39;;;;;;;12.02;1.48;;;;;;;;;;5011276;28;20034;-36
2022/04/22 13:58:06;;;;;;;9.43;1.42;;;;;;;;;;5011351;28;20829;-37
2022/04/22 14:00:34;;;;;;;6.28;0.98;;;;;;;;;;5011682;28;20026;-36
2022/04/22 14:03:02;;;;;;;10.40;1.30;;;;;;;;;;5014347;28;20060;-36
2022/04/22 14:05:29;;;;;;;11.32;1.23;;;;;;;;;;5015613;28;20383;-36
2022/04/22 14:07:56;;;;;;;6.15;1.02;;;;;;;;;;5015269;28;20021;-36
2022/04/22 14:10:23;;;;;;;14.30;1.15;;;;;;;;;;5015326;28;20109;-37
2022/04/22 14:12:50;;;;;;;9.02;1.30;;;;;;;;;;5015262;28;20026;-37
2022/04/22 14:15:17;;;;;;;12.05;1.95;;;;;;;;;;5015164;28;20040;-37
2022/04/22 14:17:45;;;;;;;9.43;1.55;;;;;;;;;;5015301;28;20037;-37
2022/04/22 14:20:12;;;;;;;14.15;1.58;;;;;;;;;;5014831;28;20399;-37
2022/04/22 14:22:40;;;;;;;10.30;1.63;;;;;;;;;;5014989;28;20056;-36
2022/04/22 14:25:07;;;;;;;12.88;1.65;;;;;;;;;;5028227;28;20048;-37
2022/04/22 14:27:34;;;;;;;11.88;1.63;;;;;;;;;;5034804;28;20025;-36
2022/04/22 14:30:01;;;;;;;13.93;1.42;;;;;;;;;;5034744;28;20383;-37
2022/04/22 14:32:28;;;;;;;11.55;1.77;;;;;;;;;;5034670;28;20075;-37
2022/04/22 14:34:55;;;;;;;12.65;1.63;;;;;;;;;;5034583;28;20025;-37
2022/04/22 14:37:22;;;;;;;10.70;1.33;;;;;;;;;;5034479;28;20025;-37
2022/04/22 14:39:49;;;;;;;14.63;1.67;;;;;;;;;;5021673;28;20124;-36
2022/04/22 14:42:17;;;;;;;6.45;0.95;;;;;;;;;;5033898;28;20025;-36
2022/04/22 14:44:44;;;;;;;13.13;1.17;;;;;;;;;;5034198;28;20087;-36
2022/04/22 14:47:12;;;;;;;12.05;1.20;;;;;;;;;;5034428;28;20398;-36
2022/04/22 14:49:40;;;;;;;3.10;0.90;;;;;;;;;;5033862;28;20040;-36
2022/04/22 14:52:07;;;;;;;6.35;0.90;;;;;;;;;;5033874;28;20061;-36
2022/04/22 14:54:34;;;;;;;7.90;1.15;;;;;;;;;;5034253;28;20029;-36
2022/04/22 14:57:03;;;;;;;5.70;1.30;;;;;;;;;;5033907;28;20033;-37
2022/04/22 14:59:30;;;;;;;12.85;1.40;;;;;;;;;;5033806;28;20368;-38
2022/04/22 15:01:57;;;;;;;11.80;1.60;;;;;;;;;;5033961;28;20033;-38
2022/04/22 15:04:24;;;;;;;11.10;1.20;;;;;;;;;;5033544;28;20034;-38
2022/04/22 15:06:51;;;;;;;7.93;1.23;;;;;;;;;;5033912;28;20056;-38
2022/04/22 15:09:18;;;;;;;6.63;1.02;;;;;;;;;;5033675;28;20032;-38
2022/04/22 15:11:45;;;;;;;9.88;0.93;;;;;;;;;;5033351;28;20124;-38
2022/04/22 15:14:13;;;;;;;5.43;0.70;;;;;;;;;;5032939;28;20034;-37
2022/04/22 15:16:40;;;;;;;6.43;0.88;;;;;;;;;;5033821;28;20081;-37
2022/04/22 15:24:38;;;;;;;5.00;1.00;;;;;;;;;;5033956;28;20406;-38
2022/04/22 15:27:05;;;;;;;7.88;1.02;;;;;;;;;;5033216;28;20395;-38
2022/04/22 15:29:32;;;;;;;1.98;0.70;;;;;;;;;;5033576;28;20025;-37
2022/04/22 15:32:00;;;;;;;3.30;0.60;;;;;;;;;;5032797;28;20403;-38
2022/04/22 15:34:27;;;;;;;9.98;1.00;;;;;;;;;;5033024;28;20537;-38
2022/04/22 15:36:54;;;;;;;3.15;0.82;;;;;;;;;;5033572;28;20031;-37
2022/04/22 15:39:21;;;;;;;7.28;1.13;;;;;;;;;;5033121;28;20032;-38
2022/04/22 15:41:48;;;;;;;11.85;1.13;;;;;;;;;;5032838;28;20033;-38
2022/04/22 15:44:24;;;;;;;8.05;1.20;;;;;;;;;;5028073;28;20037;-39
2022/04/22 15:46:52;;;;;;;10.98;1.33;;;;;;;;;;5012071;28;20044;-38
2022/04/22 15:49:18;;;;;;;11.32;1.38;;;;;;;;;;5012777;28;20045;-38
2022/04/22 15:51:46;;;;;;;9.07;1.30;;;;;;;;;;5013421;28;20057;-37
2022/04/22 15:54:13;;;;;;;9.32;1.38;;;;;;;;;;5012973;28;20044;-38
2022/04/22 15:56:39;;;;;;;11.18;1.40;;;;;;;;;;5013090;28;20395;-37
2022/04/22 15:59:08;;;;;;;7.03;1.20;;;;;;;;;;5013294;28;20109;-37
2022/04/22 16:01:40;;;;;;;10.50;1.70;;;;;;;;;;5013123;28;20034;-37